sensor_id;sensor_type;location;lat;lon;timestamp;pressure;altitude;pressure_sealevel;temperature;humidity
71964;BME280;59834;52.124;5.422;2023-06-04T02:47:15;102304.38;;;10.81;67.64
71964;BME280;59834;52.124;5.422;2023-06-04T02:49:53;102304.63;;;10.75;68.05
71964;BME280;59834;52.124;5.422;2023-06-04T02:52:20;102302.09;;;10.74;68.16
71964;BME280;59834;52.124;5.422;2023-06-04T02:54:52;102304.75;;;10.72;69.05
71964;BME280;59834;52.124;5.422;2023-06-04T02:57:21;102300.56;;;10.68;68.25
71964;BME280;59834;52.124;5.422;2023-06-04T02:59:50;102300.63;;;10.67;69.20
71964;BME280;59834;52.124;5.422;2023-06-04T03:02:18;102310.38;;;10.63;69.16
71964;BME280;59834;52.124;5.422;2023-06-04T03:04:45;102306.22;;;10.57;69.26
71964;BME280;59834;52.124;5.422;2023-06-04T03:07:14;102307.94;;;10.58;68.38
71964;BME280;59834;52.124;5.422;2023-06-04T03:09:47;102296.59;;;10.58;68.55
71964;BME280;59834;52.124;5.422;2023-06-04T03:12:15;102308.91;;;10.56;69.76
71964;BME280;59834;52.124;5.422;2023-06-04T03:14:45;102301.13;;;10.54;69.70
71964;BME280;59834;52.124;5.422;2023-06-04T03:17:13;102305.50;;;10.54;68.85
71964;BME280;59834;52.124;5.422;2023-06-04T03:19:41;102303.03;;;10.49;69.38
71964;BME280;59834;52.124;5.422;2023-06-04T03:22:09;102301.44;;;10.47;69.71
71964;BME280;59834;52.124;5.422;2023-06-04T03:24:42;102304.91;;;10.47;69.34
71964;BME280;59834;52.124;5.422;2023-06-04T03:30:12;102311.91;;;10.47;69.82
71964;BME280;59834;52.124;5.422;2023-06-04T03:32:45;102311.09;;;10.45;70.00
71964;BME280;59834;52.124;5.422;2023-06-04T03:35:19;102318.94;;;10.45;69.72
71964;BME280;59834;52.124;5.422;2023-06-04T03:37:46;102316.34;;;10.45;69.90
71964;BME280;59834;52.124;5.422;2023-06-04T03:40:13;102307.56;;;10.46;70.33
71964;BME280;59834;52.124;5.422;2023-06-04T05:15:52;102305.28;;;20.00;45.69
71964;BME280;59834;52.124;5.422;2023-06-04T05:18:37;102300.81;;;20.00;45.19
71964;BME280;59834;52.124;5.422;2023-06-04T05:22:16;102305.41;;;19.87;46.75
71964;BME280;59834;52.124;5.422;2023-06-04T05:24:57;102300.88;;;20.33;44.11
71964;BME280;59834;52.124;5.422;2023-06-04T07:05:11;102325.22;;;19.03;46.54
71964;BME280;59834;52.124;5.422;2023-06-04T07:07:47;102327.09;;;19.36;45.86
71964;BME280;59834;52.124;5.422;2023-06-04T07:21:50;102345.47;;;17.57;50.57
71964;BME280;59834;52.124;5.422;2023-06-04T07:32:50;102347.69;;;17.50;50.76
71964;BME280;59834;52.124;5.422;2023-06-04T07:35:23;102346.19;;;17.46;50.37
71964;BME280;59834;52.124;5.422;2023-06-04T07:41:57;102346.63;;;17.53;50.27
71964;BME280;59834;52.124;5.422;2023-06-04T07:44:36;102344.84;;;17.79;49.80
71964;BME280;59834;52.124;5.422;2023-06-04T07:47:04;102340.38;;;17.92;49.07
71964;BME280;59834;52.124;5.422;2023-06-04T07:49:31;102344.91;;;18.03;48.88
71964;BME280;59834;52.124;5.422;2023-06-04T07:52:01;102339.22;;;17.83;48.63
71964;BME280;59834;52.124;5.422;2023-06-04T07:54:35;102349.50;;;17.75;49.40
71964;BME280;59834;52.124;5.422;2023-06-04T07:57:05;102342.97;;;17.81;49.45
71964;BME280;59834;52.124;5.422;2023-06-04T07:59:42;102342.91;;;18.06;49.20
71964;BME280;59834;52.124;5.422;2023-06-04T08:06:11;102337.94;;;18.02;48.18
71964;BME280;59834;52.124;5.422;2023-06-04T08:09:05;102343.00;;;18.18;47.28
71964;BME280;59834;52.124;5.422;2023-06-04T08:11:52;102338.00;;;18.13;47.49
71964;BME280;59834;52.124;5.422;2023-06-04T08:18:43;102337.34;;;18.22;48.30
71964;BME280;59834;52.124;5.422;2023-06-04T08:21:26;102335.47;;;18.48;47.51
71964;BME280;59834;52.124;5.422;2023-06-04T08:23:59;102341.72;;;18.71;46.97
71964;BME280;59834;52.124;5.422;2023-06-04T08:26:34;102342.00;;;18.55;46.23
71964;BME280;59834;52.124;5.422;2023-06-04T08:29:19;102339.75;;;18.86;46.64
71964;BME280;59834;52.124;5.422;2023-06-04T08:31:52;102342.25;;;18.76;46.72
71964;BME280;59834;52.124;5.422;2023-06-04T08:34:22;102340.84;;;18.71;47.07
71964;BME280;59834;52.124;5.422;2023-06-04T08:36:56;102344.03;;;19.00;46.53
71964;BME280;59834;52.124;5.422;2023-06-04T08:39:25;102341.16;;;19.14;46.37
71964;BME280;59834;52.124;5.422;2023-06-04T08:41:56;102343.53;;;18.95;47.20
71964;BME280;59834;52.124;5.422;2023-06-04T08:44:27;102345.53;;;19.15;46.47
71964;BME280;59834;52.124;5.422;2023-06-04T08:47:05;102331.72;;;18.99;46.71
71964;BME280;59834;52.124;5.422;2023-06-04T08:49:36;102343.81;;;19.14;46.70
71964;BME280;59834;52.124;5.422;2023-06-04T08:52:03;102341.53;;;19.21;46.34
71964;BME280;59834;52.124;5.422;2023-06-04T08:54:32;102337.34;;;19.41;45.25
71964;BME280;59834;52.124;5.422;2023-06-04T08:57:01;102349.66;;;19.30;44.98
71964;BME280;59834;52.124;5.422;2023-06-04T08:59:42;102340.00;;;19.29;45.34
71964;BME280;59834;52.124;5.422;2023-06-04T09:02:12;102351.97;;;19.58;45.44
71964;BME280;59834;52.124;5.422;2023-06-04T09:04:46;102352.28;;;19.66;43.15
71964;BME280;59834;52.124;5.422;2023-06-04T09:07:26;102352.44;;;19.29;44.86
71964;BME280;59834;52.124;5.422;2023-06-04T09:09:56;102349.78;;;19.51;44.98
71964;BME280;59834;52.124;5.422;2023-06-04T09:12:42;102349.81;;;19.63;45.63
71964;BME280;59834;52.124;5.422;2023-06-04T09:15:13;102349.88;;;19.85;45.41
71964;BME280;59834;52.124;5.422;2023-06-04T09:17:43;102344.56;;;19.85;44.90
71964;BME280;59834;52.124;5.422;2023-06-04T09:20:23;102340.28;;;20.05;44.16
71964;BME280;59834;52.124;5.422;2023-06-04T09:22:51;102343.19;;;20.13;41.86
71964;BME280;59834;52.124;5.422;2023-06-04T09:25:23;102342.34;;;20.01;43.20
71964;BME280;59834;52.124;5.422;2023-06-04T09:27:54;102342.28;;;20.35;43.73
71964;BME280;59834;52.124;5.422;2023-06-04T09:30:25;102336.44;;;20.64;43.50
71964;BME280;59834;52.124;5.422;2023-06-04T09:32:52;102341.72;;;20.75;42.87
71964;BME280;59834;52.124;5.422;2023-06-04T09:35:20;102347.38;;;20.38;41.73
71964;BME280;59834;52.124;5.422;2023-06-04T09:37:55;102338.72;;;20.14;42.65
71964;BME280;59834;52.124;5.422;2023-06-04T09:40:23;102341.88;;;20.08;42.06
71964;BME280;59834;52.124;5.422;2023-06-04T09:42:55;102337.19;;;20.00;41.75
71964;BME280;59834;52.124;5.422;2023-06-04T09:45:38;102341.44;;;20.35;42.18
71964;BME280;59834;52.124;5.422;2023-06-04T09:48:07;102334.31;;;20.46;42.44
71964;BME280;59834;52.124;5.422;2023-06-04T09:50:36;102340.00;;;20.31;42.33
71964;BME280;59834;52.124;5.422;2023-06-04T09:53:15;102338.34;;;20.30;42.68
71964;BME280;59834;52.124;5.422;2023-06-04T09:56:04;102339.53;;;20.37;42.77
71964;BME280;59834;52.124;5.422;2023-06-04T09:58:49;102325.38;;;20.36;42.80
71964;BME280;59834;52.124;5.422;2023-06-04T10:01:19;102336.63;;;20.72;43.42
71964;BME280;59834;52.124;5.422;2023-06-04T10:03:47;102335.31;;;20.78;41.97
71964;BME280;59834;52.124;5.422;2023-06-04T10:06:27;102344.69;;;20.49;42.30
71964;BME280;59834;52.124;5.422;2023-06-04T10:09:08;102332.44;;;20.69;41.35
71964;BME280;59834;52.124;5.422;2023-06-04T10:11:47;102338.31;;;21.05;41.25
71964;BME280;59834;52.124;5.422;2023-06-04T10:14:41;102331.72;;;20.88;40.64
71964;BME280;59834;52.124;5.422;2023-06-04T10:17:15;102329.53;;;20.73;41.28
71964;BME280;59834;52.124;5.422;2023-06-04T10:19:54;102337.75;;;20.69;41.85
71964;BME280;59834;52.124;5.422;2023-06-04T10:22:34;102334.63;;;20.97;40.34
71964;BME280;59834;52.124;5.422;2023-06-04T10:25:02;102336.81;;;21.12;41.32
71964;BME280;59834;52.124;5.422;2023-06-04T10:27:42;102330.38;;;20.94;41.10
71964;BME280;59834;52.124;5.422;2023-06-04T10:30:15;102338.13;;;20.97;40.21
71964;BME280;59834;52.124;5.422;2023-06-04T10:32:50;102329.28;;;20.97;41.36
71964;BME280;59834;52.124;5.422;2023-06-04T10:35:59;102326.25;;;21.43;39.68
71964;BME280;59834;52.124;5.422;2023-06-04T10:39:10;102323.38;;;21.35;40.03
71964;BME280;59834;52.124;5.422;2023-06-04T10:42:11;102324.66;;;21.61;40.14
71964;BME280;59834;52.124;5.422;2023-06-04T10:45:15;102319.38;;;21.40;39.24
71964;BME280;59834;52.124;5.422;2023-06-04T10:47:48;102333.66;;;21.39;39.41
71964;BME280;59834;52.124;5.422;2023-06-04T10:50:56;102327.06;;;21.23;39.27
71964;BME280;59834;52.124;5.422;2023-06-04T10:53:37;102321.09;;;21.30;38.97
71964;BME280;59834;52.124;5.422;2023-06-04T10:56:34;102326.41;;;21.51;39.12
71964;BME280;59834;52.124;5.422;2023-06-04T11:02:19;102330.06;;;21.81;38.59
71964;BME280;59834;52.124;5.422;2023-06-04T11:05:04;102326.06;;;21.65;39.39
71964;BME280;59834;52.124;5.422;2023-06-04T11:07:43;102334.13;;;21.85;39.09
71964;BME280;59834;52.124;5.422;2023-06-04T11:10:39;102325.94;;;21.67;39.79
71964;BME280;59834;52.124;5.422;2023-06-04T12:31:34;102272.94;;;22.63;36.47
71964;BME280;59834;52.124;5.422;2023-06-04T14:00:07;102253.94;;;22.85;41.99
71964;BME280;59834;52.124;5.422;2023-06-04T15:07:55;102223.13;;;22.34;42.66
71964;BME280;59834;52.124;5.422;2023-06-04T15:14:27;102237.97;;;22.36;42.70
71964;BME280;59834;52.124;5.422;2023-06-04T15:16:56;102219.59;;;22.24;43.86
71964;BME280;59834;52.124;5.422;2023-06-04T15:19:37;102226.78;;;22.23;43.42
71964;BME280;59834;52.124;5.422;2023-06-04T15:22:23;102220.16;;;22.37;43.95
71964;BME280;59834;52.124;5.422;2023-06-04T15:24:53;102221.56;;;22.31;44.07
71964;BME280;59834;52.124;5.422;2023-06-04T15:27:47;102225.72;;;22.05;44.56
71964;BME280;59834;52.124;5.422;2023-06-04T15:30:14;102221.66;;;21.91;44.57
71964;BME280;59834;52.124;5.422;2023-06-04T15:32:44;102217.59;;;21.97;43.93
71964;BME280;59834;52.124;5.422;2023-06-04T15:35:43;102215.59;;;21.89;44.67
71964;BME280;59834;52.124;5.422;2023-06-04T15:38:18;102218.56;;;21.96;44.75
71964;BME280;59834;52.124;5.422;2023-06-04T15:40:54;102220.56;;;22.03;44.73
71964;BME280;59834;52.124;5.422;2023-06-04T15:43:26;102224.84;;;21.75;45.25
71964;BME280;59834;52.124;5.422;2023-06-04T15:45:55;102225.28;;;21.80;44.48
71964;BME280;59834;52.124;5.422;2023-06-04T15:48:38;102213.78;;;21.89;44.93
71964;BME280;59834;52.124;5.422;2023-06-04T15:51:09;102225.03;;;21.93;45.15
71964;BME280;59834;52.124;5.422;2023-06-04T15:54:28;102221.34;;;21.75;45.44
71964;BME280;59834;52.124;5.422;2023-06-04T15:57:22;102226.50;;;21.67;45.59
71964;BME280;59834;52.124;5.422;2023-06-04T15:59:55;102228.47;;;21.64;45.66
71964;BME280;59834;52.124;5.422;2023-06-04T16:02:40;102222.97;;;21.56;45.64
71964;BME280;59834;52.124;5.422;2023-06-04T16:05:33;102214.56;;;21.61;46.93
71964;BME280;59834;52.124;5.422;2023-06-04T16:12:14;102214.75;;;21.79;46.40
71964;BME280;59834;52.124;5.422;2023-06-04T16:30:51;102207.88;;;21.36;47.59
71964;BME280;59834;52.124;5.422;2023-06-04T16:33:35;102194.22;;;21.19;48.22
71964;BME280;59834;52.124;5.422;2023-06-04T16:36:10;102201.22;;;21.21;48.96
71964;BME280;59834;52.124;5.422;2023-06-04T16:39:06;102196.72;;;21.21;49.01
71964;BME280;59834;52.124;5.422;2023-06-04T16:42:12;102199.34;;;21.11;48.53
71964;BME280;59834;52.124;5.422;2023-06-04T16:44:40;102200.41;;;20.99;49.50
71964;BME280;59834;52.124;5.422;2023-06-04T16:47:27;102190.09;;;20.85;49.26
71964;BME280;59834;52.124;5.422;2023-06-04T16:50:43;102192.66;;;20.86;49.65
71964;BME280;59834;52.124;5.422;2023-06-04T16:53:43;102197.00;;;20.87;49.07
71964;BME280;59834;52.124;5.422;2023-06-04T16:56:23;102196.53;;;20.82;50.17
71964;BME280;59834;52.124;5.422;2023-06-04T16:59:21;102188.44;;;20.84;49.66
71964;BME280;59834;52.124;5.422;2023-06-04T17:01:58;102194.50;;;20.95;49.61
71964;BME280;59834;52.124;5.422;2023-06-04T17:04:29;102195.13;;;20.78;49.38
71964;BME280;59834;52.124;5.422;2023-06-04T17:06:58;102199.16;;;20.73;48.98
71964;BME280;59834;52.124;5.422;2023-06-04T17:09:35;102196.28;;;20.64;49.25
71964;BME280;59834;52.124;5.422;2023-06-04T17:12:04;102194.88;;;20.60;48.99
71964;BME280;59834;52.124;5.422;2023-06-04T17:15:09;102189.66;;;20.59;49.13
71964;BME280;59834;52.124;5.422;2023-06-04T17:17:38;102193.19;;;20.48;49.40
71964;BME280;59834;52.124;5.422;2023-06-04T17:20:12;102199.25;;;20.50;49.53
71964;BME280;59834;52.124;5.422;2023-06-04T17:22:50;102191.06;;;20.53;50.01
71964;BME280;59834;52.124;5.422;2023-06-04T17:25:56;102194.59;;;20.42;50.09
71964;BME280;59834;52.124;5.422;2023-06-04T17:28:40;102197.59;;;20.38;50.45
71964;BME280;59834;52.124;5.422;2023-06-04T17:31:23;102193.91;;;20.29;50.48
71964;BME280;59834;52.124;5.422;2023-06-04T17:34:16;102197.41;;;20.30;50.85
71964;BME280;59834;52.124;5.422;2023-06-04T17:37:08;102211.06;;;20.25;50.74
71964;BME280;59834;52.124;5.422;2023-06-04T17:40:06;102212.56;;;20.18;51.06
71964;BME280;59834;52.124;5.422;2023-06-04T17:46:35;102209.00;;;19.96;51.94
71964;BME280;59834;52.124;5.422;2023-06-04T17:53:05;102210.84;;;19.85;53.17
71964;BME280;59834;52.124;5.422;2023-06-04T17:56:00;102208.56;;;19.80;52.74
71964;BME280;59834;52.124;5.422;2023-06-04T17:58:33;102212.22;;;19.79;52.73
71964;BME280;59834;52.124;5.422;2023-06-04T18:01:21;102210.75;;;19.75;52.65
71964;BME280;59834;52.124;5.422;2023-06-04T18:04:02;102220.41;;;19.65;52.48
71964;BME280;59834;52.124;5.422;2023-06-04T18:06:59;102215.94;;;19.54;52.15
71964;BME280;59834;52.124;5.422;2023-06-04T18:14:09;102240.84;;;19.42;53.20
71964;BME280;59834;52.124;5.422;2023-06-04T18:17:07;102218.25;;;19.25;53.82
71964;BME280;59834;52.124;5.422;2023-06-04T18:19:42;102213.53;;;19.17;53.74
71964;BME280;59834;52.124;5.422;2023-06-04T18:22:11;102223.69;;;19.12;54.68
71964;BME280;59834;52.124;5.422;2023-06-04T18:24:38;102223.91;;;19.09;54.49
71964;BME280;59834;52.124;5.422;2023-06-04T18:27:07;102225.59;;;19.10;54.74
71964;BME280;59834;52.124;5.422;2023-06-04T18:29:35;102229.47;;;19.06;55.00
71964;BME280;59834;52.124;5.422;2023-06-04T18:32:02;102229.31;;;18.96;55.20
71964;BME280;59834;52.124;5.422;2023-06-04T18:34:29;102232.34;;;18.92;55.78
71964;BME280;59834;52.124;5.422;2023-06-04T18:36:59;102247.97;;;18.83;55.60
71964;BME280;59834;52.124;5.422;2023-06-04T18:39:26;102235.63;;;18.71;56.28
71964;BME280;59834;52.124;5.422;2023-06-04T18:41:54;102240.44;;;18.66;56.41
71964;BME280;59834;52.124;5.422;2023-06-04T18:44:22;102245.47;;;18.58;56.60
71964;BME280;59834;52.124;5.422;2023-06-04T18:46:50;102239.44;;;18.56;56.93
71964;BME280;59834;52.124;5.422;2023-06-04T18:49:17;102249.44;;;18.52;57.20
71964;BME280;59834;52.124;5.422;2023-06-04T18:51:51;102255.31;;;18.45;56.88
71964;BME280;59834;52.124;5.422;2023-06-04T18:54:20;102248.75;;;18.37;57.03
71964;BME280;59834;52.124;5.422;2023-06-04T18:56:48;102251.53;;;18.36;57.43
71964;BME280;59834;52.124;5.422;2023-06-04T18:59:16;102249.31;;;18.30;57.59
71964;BME280;59834;52.124;5.422;2023-06-04T19:01:43;102256.78;;;18.25;57.74
71964;BME280;59834;52.124;5.422;2023-06-04T19:04:11;102254.66;;;18.17;58.45
71964;BME280;59834;52.124;5.422;2023-06-04T19:06:44;102258.94;;;18.07;58.19
71964;BME280;59834;52.124;5.422;2023-06-04T19:09:10;102262.06;;;18.01;58.58
71964;BME280;59834;52.124;5.422;2023-06-04T19:11:37;102258.91;;;17.96;58.86
71964;BME280;59834;52.124;5.422;2023-06-04T19:14:06;102259.34;;;17.89;58.87
71964;BME280;59834;52.124;5.422;2023-06-04T19:16:32;102263.81;;;17.76;58.92
71964;BME280;59834;52.124;5.422;2023-06-04T19:18:59;102271.22;;;17.71;59.34
71964;BME280;59834;52.124;5.422;2023-06-04T19:21:26;102260.84;;;17.68;59.86
71964;BME280;59834;52.124;5.422;2023-06-04T19:23:55;102262.34;;;17.59;59.62
71964;BME280;59834;52.124;5.422;2023-06-04T19:26:28;102266.69;;;17.48;60.24
71964;BME280;59834;52.124;5.422;2023-06-04T19:29:06;102274.44;;;17.38;60.02
71964;BME280;59834;52.124;5.422;2023-06-04T19:31:36;102272.97;;;17.34;60.82
71964;BME280;59834;52.124;5.422;2023-06-04T19:34:08;102278.56;;;17.29;60.67
71964;BME280;59834;52.124;5.422;2023-06-04T19:36:37;102286.06;;;17.23;60.92
71964;BME280;59834;52.124;5.422;2023-06-04T19:39:11;102284.72;;;17.17;60.91
71964;BME280;59834;52.124;5.422;2023-06-04T19:41:50;102294.75;;;17.12;60.66
71964;BME280;59834;52.124;5.422;2023-06-04T19:44:16;102290.06;;;17.03;60.77
71964;BME280;59834;52.124;5.422;2023-06-04T19:46:46;102291.44;;;16.95;61.27
71964;BME280;59834;52.124;5.422;2023-06-04T19:49:15;102292.69;;;16.90;61.06
71964;BME280;59834;52.124;5.422;2023-06-04T19:51:45;102299.97;;;16.86;61.03
71964;BME280;59834;52.124;5.422;2023-06-04T19:54:13;102306.63;;;16.79;61.09
71964;BME280;59834;52.124;5.422;2023-06-04T19:56:40;102308.16;;;16.69;62.21
71964;BME280;59834;52.124;5.422;2023-06-04T19:59:08;102314.59;;;16.65;62.25
71964;BME280;59834;52.124;5.422;2023-06-04T20:01:37;102309.91;;;16.56;62.76
71964;BME280;59834;52.124;5.422;2023-06-04T20:04:04;102318.25;;;16.49;63.02
71964;BME280;59834;52.124;5.422;2023-06-04T20:06:36;102320.34;;;16.44;63.31
71964;BME280;59834;52.124;5.422;2023-06-04T20:09:04;102324.53;;;16.34;63.58
71964;BME280;59834;52.124;5.422;2023-06-04T20:11:31;102328.31;;;16.30;63.77
71964;BME280;59834;52.124;5.422;2023-06-04T20:14:01;102326.91;;;16.24;63.64
71964;BME280;59834;52.124;5.422;2023-06-04T20:16:27;102329.22;;;16.16;64.21
71964;BME280;59834;52.124;5.422;2023-06-04T20:18:58;102337.59;;;16.09;64.31
71964;BME280;59834;52.124;5.422;2023-06-04T20:21:26;102335.13;;;16.06;64.64
71964;BME280;59834;52.124;5.422;2023-06-04T20:24:00;102342.53;;;16.00;64.38
71964;BME280;59834;52.124;5.422;2023-06-04T20:26:27;102337.50;;;15.96;64.96
71964;BME280;59834;52.124;5.422;2023-06-04T20:29:02;102344.88;;;15.91;65.29
71964;BME280;59834;52.124;5.422;2023-06-04T20:31:37;102343.66;;;15.82;65.36
71964;BME280;59834;52.124;5.422;2023-06-04T20:34:06;102349.78;;;15.83;64.83
71964;BME280;59834;52.124;5.422;2023-06-04T20:36:37;102360.81;;;15.75;65.39
71964;BME280;59834;52.124;5.422;2023-06-04T20:39:11;102356.84;;;15.68;65.39
71964;BME280;59834;52.124;5.422;2023-06-04T20:41:39;102359.81;;;15.62;65.21
71964;BME280;59834;52.124;5.422;2023-06-04T20:44:09;102355.78;;;15.56;65.55
71964;BME280;59834;52.124;5.422;2023-06-04T20:46:41;102364.91;;;15.50;65.88
71964;BME280;59834;52.124;5.422;2023-06-04T20:49:10;102362.75;;;15.43;65.87
71964;BME280;59834;52.124;5.422;2023-06-04T20:51:42;102366.59;;;15.37;66.00
71964;BME280;59834;52.124;5.422;2023-06-04T20:54:23;102367.72;;;15.33;65.59
71964;BME280;59834;52.124;5.422;2023-06-04T20:56:51;102375.03;;;15.28;66.25
71964;BME280;59834;52.124;5.422;2023-06-04T20:59:24;102373.53;;;15.24;66.23
71964;BME280;59834;52.124;5.422;2023-06-04T21:01:51;102383.59;;;15.17;66.74
71964;BME280;59834;52.124;5.422;2023-06-04T21:04:31;102368.22;;;15.09;66.54
71964;BME280;59834;52.124;5.422;2023-06-04T21:07:02;102370.25;;;15.04;66.60
71964;BME280;59834;52.124;5.422;2023-06-04T21:09:35;102374.97;;;14.99;66.26
71964;BME280;59834;52.124;5.422;2023-06-04T21:12:11;102383.97;;;14.95;66.53
71964;BME280;59834;52.124;5.422;2023-06-04T21:14:38;102377.28;;;14.90;67.27
71964;BME280;59834;52.124;5.422;2023-06-04T21:17:15;102380.94;;;14.87;67.40
71964;BME280;59834;52.124;5.422;2023-06-04T21:19:42;102380.59;;;14.77;67.15
71964;BME280;59834;52.124;5.422;2023-06-04T21:22:09;102376.50;;;14.72;67.23
71964;BME280;59834;52.124;5.422;2023-06-04T21:24:49;102384.59;;;14.69;67.29
71964;BME280;59834;52.124;5.422;2023-06-04T21:27:20;102382.41;;;14.61;67.65
71964;BME280;59834;52.124;5.422;2023-06-04T21:30:09;102386.41;;;14.52;67.98
71964;BME280;59834;52.124;5.422;2023-06-04T21:32:37;102390.81;;;14.52;68.57
71964;BME280;59834;52.124;5.422;2023-06-04T21:35:09;102388.66;;;14.43;68.72
71964;BME280;59834;52.124;5.422;2023-06-04T21:37:37;102389.56;;;14.42;68.78
71964;BME280;59834;52.124;5.422;2023-06-04T21:40:07;102392.41;;;14.38;69.17
71964;BME280;59834;52.124;5.422;2023-06-04T21:42:36;102392.91;;;14.29;69.55
71964;BME280;59834;52.124;5.422;2023-06-04T21:45:06;102385.34;;;14.23;69.90
71964;BME280;59834;52.124;5.422;2023-06-04T21:47:37;102393.50;;;14.19;69.94
71964;BME280;59834;52.124;5.422;2023-06-04T21:50:05;102392.88;;;14.13;70.14
71964;BME280;59834;52.124;5.422;2023-06-04T21:52:36;102394.81;;;14.10;70.40
71964;BME280;59834;52.124;5.422;2023-06-04T21:55:16;102391.56;;;14.05;70.69
71964;BME280;59834;52.124;5.422;2023-06-04T21:57:43;102401.25;;;14.04;70.89
71964;BME280;59834;52.124;5.422;2023-06-04T22:00:18;102386.56;;;14.00;70.79
71964;BME280;59834;52.124;5.422;2023-06-04T22:02:50;102393.69;;;13.98;70.93
71964;BME280;59834;52.124;5.422;2023-06-04T22:05:18;102398.50;;;13.90;71.29
71964;BME280;59834;52.124;5.422;2023-06-04T22:07:47;102401.56;;;13.82;71.22
71964;BME280;59834;52.124;5.422;2023-06-04T22:10:15;102399.16;;;13.78;71.83
71964;BME280;59834;52.124;5.422;2023-06-04T22:12:47;102405.66;;;13.71;72.16
71964;BME280;59834;52.124;5.422;2023-06-04T22:15:13;102403.34;;;13.64;72.57
71964;BME280;59834;52.124;5.422;2023-06-04T22:17:40;102405.22;;;13.62;72.42
71964;BME280;59834;52.124;5.422;2023-06-04T22:20:08;102396.69;;;13.57;72.80
71964;BME280;59834;52.124;5.422;2023-06-04T22:22:37;102398.56;;;13.55;72.54
71964;BME280;59834;52.124;5.422;2023-06-04T22:25:04;102393.53;;;13.51;73.33
71964;BME280;59834;52.124;5.422;2023-06-04T22:27:33;102403.66;;;13.41;73.67
71964;BME280;59834;52.124;5.422;2023-06-04T22:30:05;102400.34;;;13.37;73.50
71964;BME280;59834;52.124;5.422;2023-06-04T22:32:33;102401.19;;;13.38;73.78
71964;BME280;59834;52.124;5.422;2023-06-04T22:35:01;102399.78;;;13.31;73.96
71964;BME280;59834;52.124;5.422;2023-06-04T22:37:27;102400.88;;;13.27;73.85
71964;BME280;59834;52.124;5.422;2023-06-04T22:39:54;102401.94;;;13.23;74.04
71964;BME280;59834;52.124;5.422;2023-06-04T22:42:22;102404.81;;;13.18;74.08
71964;BME280;59834;52.124;5.422;2023-06-04T22:44:51;102404.81;;;13.18;74.33
71964;BME280;59834;52.124;5.422;2023-06-04T22:47:20;102404.06;;;13.14;74.13
71964;BME280;59834;52.124;5.422;2023-06-04T22:49:47;102399.84;;;13.12;74.25
71964;BME280;59834;52.124;5.422;2023-06-04T22:52:15;102404.31;;;13.10;74.57
71964;BME280;59834;52.124;5.422;2023-06-04T22:54:43;102415.97;;;13.04;75.05
71964;BME280;59834;52.124;5.422;2023-06-04T22:57:12;102408.41;;;12.98;75.07
71964;BME280;59834;52.124;5.422;2023-06-04T22:59:39;102406.69;;;12.97;75.45
71964;BME280;59834;52.124;5.422;2023-06-04T23:02:07;102408.69;;;12.92;75.54
71964;BME280;59834;52.124;5.422;2023-06-04T23:04:43;102415.94;;;12.87;75.32
71964;BME280;59834;52.124;5.422;2023-06-04T23:07:15;102410.81;;;12.84;75.74
71964;BME280;59834;52.124;5.422;2023-06-04T23:09:45;102419.66;;;12.83;75.76
71964;BME280;59834;52.124;5.422;2023-06-04T23:12:13;102413.69;;;12.79;75.47
71964;BME280;59834;52.124;5.422;2023-06-04T23:14:40;102412.28;;;12.72;76.30
71964;BME280;59834;52.124;5.422;2023-06-04T23:17:08;102421.94;;;12.71;75.75
71964;BME280;59834;52.124;5.422;2023-06-04T23:19:35;102421.25;;;12.68;76.44
71964;BME280;59834;52.124;5.422;2023-06-04T23:22:03;102429.31;;;12.63;76.17
71964;BME280;59834;52.124;5.422;2023-06-04T23:24:31;102429.31;;;12.63;76.05
71964;BME280;59834;52.124;5.422;2023-06-04T23:27:00;102426.06;;;12.58;77.06
71964;BME280;59834;52.124;5.422;2023-06-04T23:29:27;102428.03;;;12.53;76.86
71964;BME280;59834;52.124;5.422;2023-06-04T23:31:54;102427.34;;;12.49;77.05
71964;BME280;59834;52.124;5.422;2023-06-04T23:34:21;102427.56;;;12.45;77.39
71964;BME280;59834;52.124;5.422;2023-06-04T23:36:50;102427.63;;;12.43;76.90
71964;BME280;59834;52.124;5.422;2023-06-04T23:39:17;102424.22;;;12.41;77.18
71964;BME280;59834;52.124;5.422;2023-06-04T23:41:44;102429.63;;;12.38;76.89
71964;BME280;59834;52.124;5.422;2023-06-04T23:44:11;102419.53;;;12.29;77.57
71964;BME280;59834;52.124;5.422;2023-06-04T23:46:37;102426.59;;;12.27;77.84
71964;BME280;59834;52.124;5.422;2023-06-04T23:49:04;102422.22;;;12.27;77.95
71964;BME280;59834;52.124;5.422;2023-06-04T23:51:31;102420.72;;;12.22;78.56
71964;BME280;59834;52.124;5.422;2023-06-04T23:53:58;102425.41;;;12.15;78.13
71964;BME280;59834;52.124;5.422;2023-06-04T23:56:25;102422.81;;;12.14;79.03
71964;BME280;59834;52.124;5.422;2023-06-04T23:58:52;102428.25;;;12.11;78.37
